Portada
METAR-TAF:

METAR-TAF

Aeroports :

Chișinău, Moldàvia

latitud: 46-55-40N, longitud: 028-55-51E, altitud: 122 m

Observació

L'informe es va fer fa 35 minuts, a les 19:30 UTC
Vent 4 kt del Sud
Temperatura 12°C
Humitat 82%
Pressió 1010 hPa
Visibilitat 10 km o més
sense núvols per sota de 1500 mi sense presència de cumulonimbus.

METAR: LUKK 011930Z 19004KT CAVOK 12/09 Q1010 R08/D NOSIG

Hora: 23:05 (20:05 UTC)

Pronòstic

L'informe es va fer fa 2 hores i 45 minuts, a les 17:20 UTC
Pronòstic vàlid del 01 a les 18 UTC al 02 a les 18 UTC
Vent 8 kt del Nord-Oest
Visibilitat 10 km o més
sense núvols per sota de 1500 mi sense presència de cumulonimbus.
Probabilitat 40% :
Temporalment
l' 02 a les 11 UTC al 02 a les 18 UTC
Núvols disperses a una alçada de 3000 ft, Cumulonimbus.

TAF: LUKK 011720Z 0118/0218 32008KT CAVOK PROB40 TEMPO 0211/0218 SCT030CB

Observacions i pronòstics meteorològics de més de 4000 aeroports (METAR i TAF).

Les estacions disponibles són els punts grocs i vermells al mapa.

Posi el ratolí al punt desitjat per veure el nom de l'estació.

Feu clic per veure les observacions i els pronòstics meteorològics.

Per canviar el mapa: feu clic els botons verds amb una creu de color negre per apropar; al botó verd amb un guió per allunyar la imatge; o en les fletxes verdes per a mapes adjacents.


METAR-TAF: